createdAt,value
2023-01-13T00:01:26.723Z,100232.86
2023-01-13T00:03:53.664Z,100235.36
2023-01-13T00:06:22.208Z,100237.21
2023-01-13T00:08:50.139Z,100239.08
2023-01-13T00:11:17.297Z,100246.17
2023-01-13T00:13:44.159Z,100249.11
2023-01-13T00:16:12.677Z,100248.55
2023-01-13T00:18:39.663Z,100253.48
2023-01-13T00:21:07.451Z,100248.46
2023-01-13T00:23:35.029Z,100243.73
2023-01-13T00:26:03.744Z,100245.11
2023-01-13T00:28:31.176Z,100244.29
2023-01-13T00:31:12.460Z,100246.44
2023-01-13T00:33:39.603Z,100245.77
2023-01-13T00:36:07.479Z,100247.83
2023-01-13T00:38:35.210Z,100250.17
2023-01-13T00:41:03.012Z,100249.41
2023-01-13T00:43:30.649Z,100246.44
2023-01-13T00:45:57.546Z,100243.36
2023-01-13T00:48:24.804Z,100242.47
2023-01-13T00:50:59.038Z,100237.61
2023-01-13T00:53:26.168Z,100237.56
2023-01-13T00:56:01.040Z,100237.80
2023-01-13T00:58:27.939Z,100232.61
2023-01-13T01:00:54.937Z,100223.39
2023-01-13T01:03:21.941Z,100220.33
2023-01-13T01:05:48.745Z,100221.67
2023-01-13T01:08:15.648Z,100219.67
2023-01-13T01:10:42.543Z,100219.98
2023-01-13T01:13:11.933Z,100222.67
2023-01-13T01:15:41.930Z,100217.30
2023-01-13T01:18:08.812Z,100216.21
2023-01-13T01:20:37.745Z,100213.90
2023-01-13T01:23:04.716Z,100209.61
2023-01-13T01:25:33.272Z,100208.70
2023-01-13T01:28:00.246Z,100205.41
2023-01-13T01:30:27.151Z,100205.45
2023-01-13T01:32:54.061Z,100205.42
2023-01-13T01:35:20.886Z,100205.35
2023-01-13T01:37:47.746Z,100201.34
2023-01-13T01:40:14.724Z,100197.42
2023-01-13T01:43:00.333Z,100194.64
2023-01-13T01:45:27.997Z,100193.09
2023-01-13T01:47:58.707Z,100189.58
2023-01-13T01:50:26.057Z,100192.62
2023-01-13T01:53:03.087Z,100193.23
2023-01-13T01:55:31.423Z,100191.46
2023-01-13T01:58:11.620Z,100189.89
2023-01-13T02:00:38.559Z,100189.86
2023-01-13T02:03:05.561Z,100188.67
2023-01-13T02:05:34.496Z,100184.77
2023-01-13T02:08:01.454Z,100185.72
2023-01-13T02:10:29.307Z,100184.63
2023-01-13T02:12:58.829Z,100184.11
2023-01-13T02:16:00.789Z,100185.54
2023-01-13T02:18:38.895Z,100184.54
2023-01-13T02:21:14.952Z,100185.91
2023-01-13T02:24:00.604Z,100185.29
2023-01-13T02:26:39.828Z,100184.00
2023-01-13T02:29:37.615Z,100183.16
2023-01-13T02:32:11.932Z,100178.83
2023-01-13T02:34:40.828Z,100173.48
2023-01-13T02:37:12.489Z,100169.39
2023-01-13T02:39:50.125Z,100169.52
2023-01-13T02:42:47.841Z,100166.20
2023-01-13T02:45:21.401Z,100165.85
2023-01-13T02:47:50.367Z,100165.56
2023-01-13T02:50:20.972Z,100165.58
2023-01-13T02:52:49.163Z,100163.70
2023-01-13T02:55:18.369Z,100160.85
2023-01-13T02:57:45.360Z,100159.89
2023-01-13T03:00:12.974Z,100159.59
2023-01-13T03:02:39.960Z,100162.67
2023-01-13T03:05:07.602Z,100166.35
2023-01-13T03:08:08.931Z,100161.34
2023-01-13T03:10:50.513Z,100159.12
2023-01-13T03:13:27.342Z,100159.91
2023-01-13T03:16:06.530Z,100158.69
2023-01-13T03:18:46.476Z,100159.39
2023-01-13T03:21:31.357Z,100157.07
2023-01-13T03:24:03.335Z,100159.56
2023-01-13T03:26:35.153Z,100158.23
2023-01-13T03:29:04.567Z,100157.88
2023-01-13T03:31:32.365Z,100156.13
2023-01-13T03:34:02.248Z,100153.80
2023-01-13T03:36:29.428Z,100157.30
2023-01-13T03:39:03.280Z,100157.12
2023-01-13T03:41:34.715Z,100153.19
2023-01-13T03:44:24.974Z,100154.71
2023-01-13T03:47:18.313Z,100151.45
2023-01-13T03:50:00.517Z,100147.92
2023-01-13T03:52:37.000Z,100149.71
2023-01-13T03:55:13.406Z,100154.45
2023-01-13T03:57:44.923Z,100156.14
2023-01-13T04:00:12.774Z,100155.33
2023-01-13T04:02:43.999Z,100153.16
2023-01-13T04:05:10.923Z,100151.83
2023-01-13T04:07:55.860Z,100154.33
2023-01-13T04:10:35.372Z,100155.95
2023-01-13T04:13:05.306Z,100156.75
2023-01-13T04:15:38.099Z,100157.23
2023-01-13T04:18:13.111Z,100157.48
2023-01-13T04:20:40.248Z,100155.92
2023-01-13T04:23:07.195Z,100154.95
2023-01-13T04:25:34.225Z,100153.01
2023-01-13T04:28:01.338Z,100150.67
2023-01-13T04:30:28.388Z,100153.95
2023-01-13T04:32:55.213Z,100156.02
2023-01-13T04:35:22.110Z,100155.09
2023-01-13T04:37:49.012Z,100155.75
2023-01-13T04:40:16.433Z,100157.19
2023-01-13T04:42:46.426Z,100157.56
2023-01-13T04:45:13.679Z,100157.73
2023-01-13T04:47:42.052Z,100154.82
2023-01-13T04:50:10.170Z,100146.96
2023-01-13T04:52:37.305Z,100147.22
2023-01-13T04:55:04.678Z,100149.17
2023-01-13T04:57:33.508Z,100148.85
2023-01-13T05:00:01.674Z,100153.66
2023-01-13T05:02:28.597Z,100154.40
2023-01-13T05:04:55.646Z,100152.16
2023-01-13T05:07:22.577Z,100159.04
2023-01-13T05:09:49.484Z,100158.48
2023-01-13T05:12:35.231Z,100157.31
2023-01-13T05:15:21.019Z,100161.12
2023-01-13T05:17:47.902Z,100167.77
2023-01-13T05:20:15.017Z,100162.10
2023-01-13T05:23:00.599Z,100164.12
2023-01-13T05:25:28.285Z,100163.40
2023-01-13T05:27:56.433Z,100164.46
2023-01-13T05:30:25.694Z,100161.70
2023-01-13T05:32:52.591Z,100161.41
2023-01-13T05:35:19.495Z,100160.66
2023-01-13T05:37:46.609Z,100161.45
2023-01-13T05:40:33.904Z,100159.38
2023-01-13T05:43:23.063Z,100155.61
2023-01-13T05:45:58.005Z,100155.73
2023-01-13T05:48:38.555Z,100159.15
2023-01-13T05:51:06.640Z,100161.89
2023-01-13T05:53:33.683Z,100168.66
2023-01-13T05:56:00.745Z,100172.31
2023-01-13T05:58:28.133Z,100175.40
2023-01-13T06:01:00.373Z,100176.19
2023-01-13T06:03:27.423Z,100179.86
2023-01-13T06:05:58.881Z,100182.97
2023-01-13T06:08:25.945Z,100183.49
2023-01-13T06:10:52.986Z,100181.60
2023-01-13T06:13:19.937Z,100177.48
2023-01-13T06:15:46.898Z,100177.66
2023-01-13T06:18:13.947Z,100180.76
2023-01-13T06:20:41.001Z,100181.02
2023-01-13T06:23:09.483Z,100174.70
2023-01-13T06:25:51.075Z,100177.21
2023-01-13T06:28:18.011Z,100173.33
2023-01-13T06:30:49.749Z,100178.80
2023-01-13T06:33:19.726Z,100177.65
2023-01-13T06:35:50.703Z,100182.09
2023-01-13T06:38:17.687Z,100184.34
2023-01-13T06:40:44.742Z,100180.40
2023-01-13T06:43:17.929Z,100181.64
2023-01-13T06:45:52.611Z,100182.55
2023-01-13T06:48:20.653Z,100175.70
2023-01-13T06:50:47.576Z,100173.88
2023-01-13T06:53:14.539Z,100175.12
2023-01-13T06:55:41.817Z,100177.96
2023-01-13T06:58:08.743Z,100179.28
2023-01-13T07:00:37.267Z,100174.79
2023-01-13T07:03:15.029Z,100172.18
2023-01-13T07:05:43.105Z,100171.60
2023-01-13T07:08:10.365Z,100170.23
2023-01-13T07:10:37.645Z,100171.45
2023-01-13T07:13:23.301Z,100175.54
2023-01-13T07:16:01.014Z,100174.41
2023-01-13T07:18:29.170Z,100177.39
2023-01-13T07:20:57.231Z,100176.14
2023-01-13T07:23:25.029Z,100179.43
2023-01-13T07:25:51.981Z,100182.28
2023-01-13T07:28:18.984Z,100191.02
2023-01-13T07:30:45.983Z,100192.67
2023-01-13T07:33:13.026Z,100191.61
2023-01-13T07:35:39.973Z,100191.27
2023-01-13T07:38:06.923Z,100192.85
2023-01-13T07:40:33.892Z,100186.84
2023-01-13T07:43:19.555Z,100185.89
2023-01-13T07:45:46.541Z,100186.65
2023-01-13T07:48:13.681Z,100185.48
2023-01-13T07:50:42.123Z,100184.02
2023-01-13T07:53:10.946Z,100184.15
2023-01-13T07:55:42.101Z,100187.26
2023-01-13T07:58:10.015Z,100188.63
2023-01-13T08:00:38.133Z,100184.23
2023-01-13T08:03:05.259Z,100188.52
2023-01-13T08:05:32.445Z,100192.02
2023-01-13T08:07:59.402Z,100191.09
2023-01-13T08:10:26.404Z,100192.16
2023-01-13T08:13:12.234Z,100191.16
2023-01-13T08:15:39.136Z,100187.05
2023-01-13T08:18:06.440Z,100184.23
2023-01-13T08:20:33.396Z,100184.70
2023-01-13T08:23:00.532Z,100182.50
2023-01-13T08:25:27.918Z,100173.27
2023-01-13T08:27:55.038Z,100173.33
2023-01-13T08:30:22.113Z,100174.46
2023-01-13T08:32:49.781Z,100172.92
2023-01-13T08:35:17.662Z,100175.12
2023-01-13T08:37:45.762Z,100174.34
2023-01-13T08:40:14.092Z,100176.63
2023-01-13T08:42:40.990Z,100170.20
2023-01-13T08:45:08.856Z,100169.36
2023-01-13T08:47:35.787Z,100165.83
2023-01-13T08:50:03.224Z,100165.48
2023-01-13T08:52:30.403Z,100167.09
2023-01-13T08:54:57.280Z,100165.06
2023-01-13T08:57:24.375Z,100165.99
2023-01-13T08:59:51.294Z,100160.59
2023-01-13T09:02:22.111Z,100159.44
2023-01-13T09:04:49.480Z,100159.92
2023-01-13T09:07:16.406Z,100157.73
2023-01-13T09:09:43.330Z,100158.94
2023-01-13T09:12:33.130Z,100158.26
2023-01-13T09:15:00.278Z,100156.67
2023-01-13T09:17:27.677Z,100154.05
2023-01-13T09:19:54.695Z,100150.58
2023-01-13T09:22:22.009Z,100151.84
2023-01-13T09:24:48.907Z,100148.56
2023-01-13T09:27:15.958Z,100145.10
2023-01-13T09:29:43.198Z,100148.56
2023-01-13T09:32:12.621Z,100151.92
2023-01-13T09:34:58.612Z,100153.77
2023-01-13T09:37:29.766Z,100149.50
2023-01-13T09:39:56.671Z,100154.25
2023-01-13T09:42:42.484Z,100150.25
2023-01-13T09:45:13.837Z,100147.04
2023-01-13T09:48:07.403Z,100145.89
2023-01-13T09:50:59.279Z,100140.84
2023-01-13T09:53:29.349Z,100136.23
2023-01-13T09:55:56.284Z,100136.74
2023-01-13T09:58:24.359Z,100133.92
2023-01-13T10:01:00.046Z,100133.81
2023-01-13T10:03:28.777Z,100134.09
2023-01-13T10:06:18.579Z,100129.21
2023-01-13T10:08:46.343Z,100130.40
2023-01-13T10:11:42.710Z,100125.34
2023-01-13T10:14:14.340Z,100117.70
2023-01-13T10:17:05.731Z,100110.52
2023-01-13T10:19:46.799Z,100113.38
2023-01-13T10:22:43.289Z,100114.98
2023-01-13T10:25:18.422Z,100115.34
2023-01-13T10:27:49.438Z,100117.07
2023-01-13T10:30:31.503Z,100116.19
2023-01-13T10:33:06.657Z,100113.69
2023-01-13T10:36:03.269Z,100117.07
2023-01-13T10:38:40.353Z,100115.02
2023-01-13T10:41:34.413Z,100113.11
2023-01-13T10:44:04.625Z,100108.42
2023-01-13T10:46:36.190Z,100106.02
2023-01-13T10:49:06.249Z,100107.23
2023-01-13T10:51:39.421Z,100104.89
2023-01-13T10:54:15.468Z,100101.83
2023-01-13T10:56:43.877Z,100096.64
2023-01-13T10:59:22.343Z,100091.73
2023-01-13T11:01:58.480Z,100093.08
2023-01-13T11:04:29.971Z,100094.75
2023-01-13T11:06:57.244Z,100095.43
2023-01-13T11:09:26.398Z,100098.15
2023-01-13T11:11:56.257Z,100098.95
2023-01-13T11:14:41.810Z,100094.23
2023-01-13T11:17:21.079Z,100089.89
2023-01-13T11:19:51.256Z,100088.69
2023-01-13T11:22:25.059Z,100091.82
2023-01-13T11:24:58.360Z,100092.66
2023-01-13T11:27:28.309Z,100089.50
2023-01-13T11:30:23.453Z,100092.67
2023-01-13T11:32:56.830Z,100094.52
2023-01-13T11:35:24.012Z,100092.34
2023-01-13T11:37:55.822Z,100087.45
2023-01-13T11:40:37.312Z,100082.09
2023-01-13T11:43:07.625Z,100081.54
2023-01-13T11:45:40.718Z,100079.27
2023-01-13T11:48:21.023Z,100081.17
2023-01-13T11:51:06.803Z,100075.05
2023-01-13T11:53:36.668Z,100077.64
2023-01-13T11:56:39.360Z,100078.83
2023-01-13T11:59:15.512Z,100081.59
2023-01-13T12:02:21.278Z,100083.12
2023-01-13T12:05:42.449Z,100083.44
2023-01-13T12:08:10.924Z,100085.36
2023-01-13T12:10:59.547Z,100082.85
2023-01-13T12:13:48.458Z,100086.13
2023-01-13T12:16:35.654Z,100091.06
2023-01-13T12:19:24.621Z,100090.28
2023-01-13T12:22:09.055Z,100087.56
2023-01-13T12:24:59.401Z,100092.04
2023-01-13T12:27:47.544Z,100090.66
2023-01-13T12:30:51.023Z,100092.08
2023-01-13T12:33:55.621Z,100090.05
2023-01-13T12:36:39.977Z,100092.88
2023-01-13T12:39:22.796Z,100091.61
2023-01-13T12:42:18.797Z,100092.74
2023-01-13T12:45:05.357Z,100090.05
2023-01-13T12:47:45.624Z,100082.98
2023-01-13T12:50:42.018Z,100079.49
2023-01-13T12:53:35.023Z,100080.16
2023-01-13T12:56:22.247Z,100082.41
2023-01-13T12:58:49.185Z,100080.13
2023-01-13T13:01:16.951Z,100085.45
2023-01-13T13:04:07.498Z,100088.06
2023-01-13T13:06:34.363Z,100090.51
2023-01-13T13:09:05.565Z,100086.55
2023-01-13T13:11:58.416Z,100086.42
2023-01-13T13:14:37.674Z,100085.37
2023-01-13T13:17:31.888Z,100088.96
2023-01-13T13:19:59.852Z,100090.30
2023-01-13T13:22:26.676Z,100097.20
2023-01-13T13:24:57.638Z,100097.59
2023-01-13T13:27:40.472Z,100097.86
2023-01-13T13:30:14.175Z,100098.48
2023-01-13T13:32:56.570Z,100097.40
2023-01-13T13:35:31.289Z,100089.88
2023-01-13T13:38:39.505Z,100090.61
2023-01-13T13:41:37.544Z,100095.52
2023-01-13T13:44:35.401Z,100104.73
2023-01-13T13:47:02.964Z,100105.06
2023-01-13T13:49:41.688Z,100100.66
2023-01-13T13:52:11.858Z,100098.50
2023-01-13T13:54:40.198Z,100101.84
2023-01-13T13:57:16.500Z,100096.69
2023-01-13T13:59:43.429Z,100099.77
2023-01-13T14:02:22.872Z,100096.48
2023-01-13T14:04:49.867Z,100093.58
2023-01-13T14:07:21.453Z,100094.98
2023-01-13T14:09:51.056Z,100098.45
2023-01-13T14:12:27.695Z,100097.47
2023-01-13T14:14:57.616Z,100098.81
2023-01-13T14:17:29.069Z,100089.73
2023-01-13T14:20:00.623Z,100089.31
2023-01-13T14:22:27.581Z,100085.09
2023-01-13T14:24:58.223Z,100082.95
2023-01-13T14:27:27.611Z,100082.33
2023-01-13T14:29:55.374Z,100084.52
2023-01-13T14:32:23.354Z,100088.20
2023-01-13T14:34:51.437Z,100095.05
2023-01-13T14:37:46.211Z,100093.53
2023-01-13T14:40:33.320Z,100090.11
2023-01-13T14:43:00.512Z,100081.27
2023-01-13T14:45:27.738Z,100082.75
2023-01-13T14:47:54.631Z,100084.16
2023-01-13T14:50:27.768Z,100080.93
2023-01-13T14:52:55.851Z,100077.48
2023-01-13T14:55:38.662Z,100077.94
2023-01-13T14:58:25.174Z,100078.44
2023-01-13T15:00:53.073Z,100078.34
2023-01-13T15:03:20.932Z,100082.77
2023-01-13T15:05:51.917Z,100084.50
2023-01-13T15:08:30.075Z,100081.54
2023-01-13T15:11:01.013Z,100081.71
2023-01-13T15:13:36.029Z,100083.73
2023-01-13T15:16:26.597Z,100080.66
2023-01-13T15:18:54.778Z,100075.98
2023-01-13T15:21:21.827Z,100071.46
2023-01-13T15:23:48.885Z,100071.05
2023-01-13T15:26:20.356Z,100067.56
2023-01-13T15:28:47.497Z,100066.77
2023-01-13T15:31:14.660Z,100063.40
2023-01-13T15:33:42.001Z,100063.03
2023-01-13T15:36:27.275Z,100063.77
2023-01-13T15:38:54.556Z,100067.89
2023-01-13T15:41:41.637Z,100062.89
2023-01-13T15:44:29.712Z,100066.14
2023-01-13T15:46:57.138Z,100071.23
2023-01-13T15:49:35.065Z,100074.42
2023-01-13T15:52:12.317Z,100073.08
2023-01-13T15:54:39.270Z,100074.28
2023-01-13T15:57:06.324Z,100073.79
2023-01-13T15:59:34.014Z,100069.85
2023-01-13T16:02:00.834Z,100068.62
2023-01-13T16:04:27.754Z,100066.85
2023-01-13T16:06:55.467Z,100068.67
2023-01-13T16:09:22.353Z,100068.31
2023-01-13T16:11:49.231Z,100069.02
2023-01-13T16:14:16.209Z,100071.35
2023-01-13T16:16:43.101Z,100070.09
2023-01-13T16:19:11.928Z,100065.90
2023-01-13T16:21:39.060Z,100063.67
2023-01-13T16:24:06.095Z,100059.15
2023-01-13T16:26:36.412Z,100062.31
2023-01-13T16:29:03.345Z,100063.30
2023-01-13T16:31:32.251Z,100062.13
2023-01-13T16:34:00.357Z,100073.30
2023-01-13T16:36:27.783Z,100067.44
2023-01-13T16:38:54.922Z,100067.75
2023-01-13T16:41:22.140Z,100065.54
2023-01-13T16:43:48.985Z,100062.35
2023-01-13T16:46:20.004Z,100060.74
2023-01-13T16:48:47.407Z,100058.45
2023-01-13T16:51:14.348Z,100063.38
2023-01-13T16:53:41.226Z,100062.40
2023-01-13T16:56:18.211Z,100064.17
2023-01-13T16:58:46.160Z,100065.23
2023-01-13T17:01:21.905Z,100068.46
2023-01-13T17:03:51.830Z,100068.70
2023-01-13T17:06:21.871Z,100068.94
2023-01-13T17:08:48.809Z,100075.08
2023-01-13T17:11:15.758Z,100068.30
2023-01-13T17:13:42.713Z,100067.85
2023-01-13T17:16:21.165Z,100060.80
2023-01-13T17:18:48.363Z,100053.91
2023-01-13T17:21:15.471Z,100061.38
2023-01-13T17:23:42.593Z,100062.56
2023-01-13T17:26:22.942Z,100060.48
2023-01-13T17:28:49.779Z,100060.72
2023-01-13T17:31:16.775Z,100065.38
2023-01-13T17:33:43.702Z,100071.58
2023-01-13T17:36:10.572Z,100071.45
2023-01-13T17:38:37.464Z,100070.84
2023-01-13T17:41:04.705Z,100071.08
2023-01-13T17:43:32.013Z,100071.23
2023-01-13T17:45:59.230Z,100072.80
2023-01-13T17:48:26.329Z,100068.72
2023-01-13T17:50:53.588Z,100067.70
2023-01-13T17:53:20.658Z,100066.70
2023-01-13T17:55:54.466Z,100065.39
2023-01-13T17:58:22.315Z,100069.41
2023-01-13T18:00:49.748Z,100067.41
2023-01-13T18:03:17.288Z,100065.79
2023-01-13T18:05:47.278Z,100055.90
2023-01-13T18:08:14.309Z,100057.60
2023-01-13T18:10:41.263Z,100051.33
2023-01-13T18:13:09.539Z,100048.07
2023-01-13T18:15:36.901Z,100047.30
2023-01-13T18:18:03.950Z,100046.20
2023-01-13T18:20:49.737Z,100044.66
2023-01-13T18:23:36.950Z,100039.60
2023-01-13T18:26:40.856Z,100036.39
2023-01-13T18:29:07.896Z,100032.73
2023-01-13T18:31:34.735Z,100035.82
2023-01-13T18:34:01.690Z,100033.77
2023-01-13T18:36:28.571Z,100031.31
2023-01-13T18:38:55.404Z,100031.08
2023-01-13T18:41:41.168Z,100032.47
2023-01-13T18:44:08.119Z,100036.59
2023-01-13T18:46:35.003Z,100033.39
2023-01-13T18:49:01.934Z,100033.95
2023-01-13T18:51:28.869Z,100039.23
2023-01-13T18:53:55.744Z,100038.81
2023-01-13T18:56:22.770Z,100035.66
2023-01-13T18:58:53.717Z,100034.98
2023-01-13T19:01:26.003Z,100037.21
2023-01-13T19:04:00.329Z,100037.23
2023-01-13T19:06:29.573Z,100042.13
2023-01-13T19:09:08.341Z,100043.98
2023-01-13T19:11:36.405Z,100050.20
2023-01-13T19:14:03.767Z,100049.08
2023-01-13T19:16:30.713Z,100053.17
2023-01-13T19:18:57.868Z,100053.03
2023-01-13T19:21:25.492Z,100050.08
2023-01-13T19:23:56.137Z,100052.31
2023-01-13T19:26:23.130Z,100053.38
2023-01-13T19:28:50.788Z,100055.95
2023-01-13T19:31:20.700Z,100058.34
2023-01-13T19:33:47.863Z,100055.02
2023-01-13T19:36:15.024Z,100056.27
2023-01-13T19:38:41.862Z,100058.89
2023-01-13T19:41:28.814Z,100060.80
2023-01-13T19:44:15.374Z,100057.41
2023-01-13T19:46:42.359Z,100058.47
2023-01-13T19:49:10.609Z,100059.97
2023-01-13T19:51:37.558Z,100054.06
2023-01-13T19:54:04.584Z,100053.23
2023-01-13T19:56:31.557Z,100054.63
2023-01-13T19:58:58.461Z,100046.89
2023-01-13T20:01:31.906Z,100044.58
2023-01-13T20:04:03.565Z,100046.17
2023-01-13T20:06:31.977Z,100047.83
2023-01-13T20:08:59.344Z,100046.30
2023-01-13T20:11:31.511Z,100043.53
2023-01-13T20:13:59.250Z,100043.98
2023-01-13T20:16:27.121Z,100041.30
2023-01-13T20:18:54.071Z,100043.66
2023-01-13T20:21:21.029Z,100042.90
2023-01-13T20:23:52.175Z,100047.14
2023-01-13T20:26:20.500Z,100045.30
2023-01-13T20:28:47.502Z,100044.99
2023-01-13T20:31:15.026Z,100051.20
2023-01-13T20:33:42.138Z,100051.09
2023-01-13T20:36:09.446Z,100048.94
2023-01-13T20:38:39.307Z,100055.21
2023-01-13T20:41:25.853Z,100056.77
2023-01-13T20:43:53.097Z,100061.08
2023-01-13T20:46:20.525Z,100066.47
2023-01-13T20:48:47.719Z,100058.36
2023-01-13T20:51:14.836Z,100061.66
2023-01-13T20:53:41.882Z,100065.43
2023-01-13T20:56:09.241Z,100064.62
2023-01-13T20:58:38.255Z,100062.70
2023-01-13T21:01:05.694Z,100065.14
2023-01-13T21:03:33.383Z,100064.96
2023-01-13T21:06:00.264Z,100066.59
2023-01-13T21:08:27.079Z,100068.08
2023-01-13T21:11:04.522Z,100061.73
2023-01-13T21:13:50.950Z,100068.83
2023-01-13T21:16:17.914Z,100064.80
2023-01-13T21:19:03.678Z,100061.27
2023-01-13T21:21:30.631Z,100053.93
2023-01-13T21:23:57.499Z,100048.04
2023-01-13T21:26:24.435Z,100056.79
2023-01-13T21:28:51.386Z,100055.96
2023-01-13T21:31:18.473Z,100058.27
2023-01-13T21:33:47.767Z,100054.29
2023-01-13T21:36:14.995Z,100047.73
2023-01-13T21:38:42.060Z,100052.37
2023-01-13T21:41:09.424Z,100044.23
2023-01-13T21:43:55.500Z,100047.17
2023-01-13T21:46:42.206Z,100041.45
2023-01-13T21:49:09.253Z,100042.19
2023-01-13T21:51:37.075Z,100045.53
2023-01-13T21:54:04.386Z,100048.73
2023-01-13T21:56:31.283Z,100055.00
2023-01-13T21:58:58.200Z,100056.37
2023-01-13T22:01:25.259Z,100055.62
2023-01-13T22:04:11.067Z,100059.55
2023-01-13T22:06:38.142Z,100059.01
2023-01-13T22:09:05.108Z,100059.13
2023-01-13T22:11:32.794Z,100063.38
2023-01-13T22:14:06.818Z,100064.09
2023-01-13T22:16:39.543Z,100062.16
2023-01-13T22:19:07.102Z,100061.08
2023-01-13T22:21:34.063Z,100062.59
2023-01-13T22:24:01.663Z,100059.09
2023-01-13T22:26:28.723Z,100056.47
2023-01-13T22:28:55.670Z,100055.81
2023-01-13T22:31:23.840Z,100056.22
2023-01-13T22:33:52.672Z,100053.52
2023-01-13T22:36:19.898Z,100051.61
2023-01-13T22:38:46.949Z,100047.00
2023-01-13T22:41:14.003Z,100043.75
2023-01-13T22:43:41.162Z,100046.23
2023-01-13T22:46:10.536Z,100046.70
2023-01-13T22:48:37.982Z,100044.50
2023-01-13T22:51:09.723Z,100037.63
2023-01-13T22:53:36.973Z,100039.30
2023-01-13T22:56:04.411Z,100038.29
2023-01-13T22:58:31.637Z,100033.08
2023-01-13T23:01:09.645Z,100036.91
2023-01-13T23:03:36.623Z,100033.14
2023-01-13T23:06:03.585Z,100033.05
2023-01-13T23:08:30.450Z,100032.59
2023-01-13T23:11:04.179Z,100037.38
2023-01-13T23:13:31.391Z,100041.13
2023-01-13T23:16:35.001Z,100031.55
2023-01-13T23:19:01.887Z,100039.02
2023-01-13T23:21:30.404Z,100038.77
2023-01-13T23:23:58.742Z,100030.35
2023-01-13T23:26:26.762Z,100025.49
2023-01-13T23:28:53.914Z,100029.16
2023-01-13T23:31:21.813Z,100027.98
2023-01-13T23:33:48.771Z,100028.48
2023-01-13T23:36:20.914Z,100026.30
2023-01-13T23:38:47.855Z,100027.81
2023-01-13T23:41:16.649Z,100031.27
2023-01-13T23:43:43.607Z,100023.36
2023-01-13T23:46:12.603Z,100010.77
2023-01-13T23:48:39.765Z,100012.43
2023-01-13T23:51:09.369Z,100012.43
2023-01-13T23:53:40.073Z,100011.80
2023-01-13T23:56:10.386Z,100009.29
2023-01-13T23:58:37.388Z,100012.23
